createdAt,value
2023-02-04T00:01:46.826Z,11.30
2023-02-04T00:04:13.951Z,10.15
2023-02-04T00:06:40.665Z,9.40
2023-02-04T00:09:07.164Z,9.68
2023-02-04T00:11:33.697Z,10.15
2023-02-04T00:14:00.327Z,10.00
2023-02-04T00:16:26.880Z,10.40
2023-02-04T00:18:53.445Z,10.20
2023-02-04T00:21:20.029Z,9.57
2023-02-04T00:23:46.491Z,9.77
2023-02-04T00:26:13.088Z,11.38
2023-02-04T00:28:40.628Z,10.77
2023-02-04T00:31:07.236Z,11.82
2023-02-04T00:33:33.734Z,13.77
2023-02-04T00:36:00.292Z,14.13
2023-02-04T00:38:26.814Z,15.02
2023-02-04T00:40:53.880Z,14.35
2023-02-04T00:43:20.342Z,14.77
2023-02-04T00:45:46.960Z,16.10
2023-02-04T00:48:13.480Z,14.57
2023-02-04T00:50:40.065Z,13.30
2023-02-04T00:53:07.346Z,14.00
2023-02-04T00:55:33.913Z,14.13
2023-02-04T00:58:00.497Z,12.77
2023-02-04T01:00:27.053Z,13.60
2023-02-04T01:02:54.203Z,12.77
2023-02-04T01:05:20.778Z,12.55
2023-02-04T01:07:47.262Z,12.02
2023-02-04T01:10:15.417Z,12.55
2023-02-04T01:12:42.067Z,11.23
2023-02-04T01:15:09.277Z,10.65
2023-02-04T01:17:35.805Z,10.90
2023-02-04T01:20:02.286Z,11.23
2023-02-04T01:22:28.816Z,11.33
2023-02-04T01:24:55.468Z,11.53
2023-02-04T01:27:21.946Z,12.40
2023-02-04T01:29:48.459Z,11.57
2023-02-04T01:32:15.032Z,10.93
2023-02-04T01:34:41.559Z,12.00
2023-02-04T01:37:08.063Z,10.80
2023-02-04T01:39:34.668Z,10.90
2023-02-04T01:42:01.329Z,11.50
2023-02-04T01:44:29.234Z,11.63
2023-02-04T01:46:56.157Z,11.73
2023-02-04T01:49:23.398Z,11.90
2023-02-04T01:51:50.154Z,12.17
2023-02-04T01:54:17.979Z,12.43
2023-02-04T01:56:47.266Z,12.00
2023-02-04T01:59:16.362Z,11.77
2023-02-04T02:01:46.079Z,11.30
2023-02-04T02:04:34.142Z,11.07
2023-02-04T02:07:03.918Z,12.63
2023-02-04T02:09:33.345Z,12.80
2023-02-04T02:12:02.967Z,10.73
2023-02-04T02:14:29.616Z,10.33
2023-02-04T02:16:56.220Z,11.10
2023-02-04T02:19:32.366Z,10.40
2023-02-04T02:22:31.007Z,11.23
2023-02-04T02:24:57.744Z,11.00
2023-02-04T02:27:24.730Z,10.80
2023-02-04T02:29:51.636Z,9.63
2023-02-04T02:32:18.471Z,10.57
2023-02-04T02:34:46.825Z,12.03
2023-02-04T02:37:14.046Z,10.57
2023-02-04T02:39:44.538Z,9.47
2023-02-04T02:42:16.263Z,8.93
2023-02-04T02:44:44.866Z,9.90
2023-02-04T02:47:15.363Z,9.33
2023-02-04T02:49:42.869Z,8.93
2023-02-04T02:52:13.377Z,8.97
2023-02-04T02:54:40.779Z,8.80
2023-02-04T02:57:16.388Z,9.20
2023-02-04T02:59:42.982Z,9.27
2023-02-04T03:02:13.865Z,8.97
2023-02-04T03:04:44.049Z,9.17
2023-02-04T03:07:11.948Z,8.80
2023-02-04T03:09:38.602Z,9.33
2023-02-04T03:12:06.302Z,9.17
2023-02-04T03:14:33.624Z,7.70
2023-02-04T03:17:01.421Z,8.90
2023-02-04T03:19:28.463Z,9.23
2023-02-04T03:21:56.596Z,8.63
2023-02-04T03:24:24.022Z,9.13
2023-02-04T03:26:50.709Z,8.00
2023-02-04T03:29:17.405Z,8.90
2023-02-04T03:31:44.008Z,9.07
2023-02-04T03:34:10.654Z,7.87
2023-02-04T03:36:37.738Z,8.60
2023-02-04T03:39:04.627Z,8.37
2023-02-04T03:41:31.203Z,7.53
2023-02-04T03:43:57.703Z,8.90
2023-02-04T03:46:25.888Z,8.33
2023-02-04T03:48:52.478Z,8.27
2023-02-04T03:51:18.971Z,8.17
2023-02-04T03:53:45.441Z,8.03
2023-02-04T03:56:11.970Z,8.67
2023-02-04T03:58:38.597Z,7.80
2023-02-04T04:01:05.233Z,7.50
2023-02-04T04:03:31.754Z,8.23
2023-02-04T04:05:58.308Z,8.20
2023-02-04T04:08:25.645Z,8.30
2023-02-04T04:10:52.150Z,7.37
2023-02-04T04:13:18.646Z,8.07
2023-02-04T04:15:45.253Z,7.40
2023-02-04T04:18:11.776Z,7.50
2023-02-04T04:20:38.349Z,7.80
2023-02-04T04:23:05.144Z,8.27
2023-02-04T04:25:31.704Z,7.80
2023-02-04T04:27:58.263Z,7.80
2023-02-04T04:30:24.905Z,8.00
2023-02-04T04:32:51.480Z,7.50
2023-02-04T04:35:18.054Z,7.90
2023-02-04T04:37:44.543Z,8.17
2023-02-04T04:40:12.520Z,7.63
2023-02-04T04:42:39.067Z,7.90
2023-02-04T04:45:08.908Z,7.07
2023-02-04T04:47:35.839Z,8.10
2023-02-04T04:50:02.487Z,7.57
2023-02-04T04:52:29.037Z,7.53
2023-02-04T04:54:55.597Z,7.20
2023-02-04T04:57:22.267Z,7.20
2023-02-04T04:59:48.804Z,7.87
2023-02-04T05:02:15.294Z,7.97
2023-02-04T05:04:41.854Z,8.03
2023-02-04T05:07:08.557Z,7.83
2023-02-04T05:09:35.017Z,7.77
2023-02-04T05:12:01.545Z,7.73
2023-02-04T05:14:28.223Z,8.17
2023-02-04T05:16:54.680Z,7.77
2023-02-04T05:19:21.187Z,8.30
2023-02-04T05:21:47.701Z,8.60
2023-02-04T05:24:14.319Z,8.27
2023-02-04T05:26:40.811Z,8.93
2023-02-04T05:29:07.976Z,8.50
2023-02-04T05:31:35.431Z,8.83
2023-02-04T05:34:02.005Z,8.20
2023-02-04T05:36:28.665Z,8.97
2023-02-04T05:38:55.103Z,9.60
2023-02-04T05:41:21.657Z,8.10
2023-02-04T05:43:48.169Z,7.70
2023-02-04T05:46:14.668Z,8.27
2023-02-04T05:48:41.227Z,9.70
2023-02-04T05:51:07.770Z,7.90
2023-02-04T05:53:34.325Z,8.53
2023-02-04T05:56:00.902Z,8.17
2023-02-04T05:58:33.304Z,8.87
2023-02-04T06:01:01.593Z,8.13
2023-02-04T06:03:29.618Z,8.63
2023-02-04T06:05:57.037Z,10.13
2023-02-04T06:08:23.738Z,9.47
2023-02-04T06:10:50.346Z,8.77
2023-02-04T06:13:17.080Z,9.67
2023-02-04T06:15:43.560Z,10.10
2023-02-04T06:18:10.638Z,8.83
2023-02-04T06:20:37.426Z,9.23
2023-02-04T06:23:03.921Z,8.93
2023-02-04T06:25:30.487Z,9.33
2023-02-04T06:27:57.063Z,9.77
2023-02-04T06:30:23.561Z,11.30
2023-02-04T06:32:50.080Z,9.87
2023-02-04T06:35:16.741Z,9.57
2023-02-04T06:37:44.522Z,9.67
2023-02-04T06:40:12.207Z,9.47
2023-02-04T06:42:38.796Z,9.07
2023-02-04T06:45:05.896Z,9.47
2023-02-04T06:47:32.468Z,8.93
2023-02-04T06:49:58.921Z,10.07
2023-02-04T06:52:25.482Z,10.43
2023-02-04T06:54:51.994Z,10.10
2023-02-04T06:57:18.521Z,9.00
2023-02-04T06:59:47.042Z,10.93
2023-02-04T07:02:14.227Z,8.90
2023-02-04T07:04:43.767Z,9.40
2023-02-04T07:07:11.652Z,9.70
2023-02-04T07:09:40.608Z,9.07
2023-02-04T07:12:07.688Z,9.40
2023-02-04T07:14:34.434Z,8.80
2023-02-04T07:17:01.150Z,9.43
2023-02-04T07:19:27.692Z,9.93
2023-02-04T07:21:56.842Z,9.60
2023-02-04T07:24:24.090Z,9.10
2023-02-04T07:26:51.134Z,9.13
2023-02-04T07:29:25.070Z,9.17
2023-02-04T07:31:52.922Z,9.73
2023-02-04T07:34:20.236Z,8.97
2023-02-04T07:36:47.013Z,9.20
2023-02-04T07:39:13.606Z,9.80
2023-02-04T07:41:41.045Z,9.13
2023-02-04T07:44:07.769Z,10.37
2023-02-04T07:46:34.323Z,7.93
2023-02-04T07:49:01.234Z,8.90
2023-02-04T07:51:28.083Z,9.93
2023-02-04T07:53:55.693Z,9.70
2023-02-04T07:56:22.161Z,8.47
2023-02-04T07:58:48.692Z,9.17
2023-02-04T08:01:15.690Z,10.30
2023-02-04T08:03:42.760Z,10.77
2023-02-04T08:06:09.698Z,9.20
2023-02-04T08:08:36.201Z,9.00
2023-02-04T08:11:02.848Z,9.30
2023-02-04T08:13:29.398Z,9.17
2023-02-04T08:15:55.996Z,9.43
2023-02-04T08:18:25.051Z,11.13
2023-02-04T08:20:51.837Z,9.47
2023-02-04T08:23:18.396Z,8.87
2023-02-04T08:25:45.603Z,9.53
2023-02-04T08:28:12.320Z,10.17
2023-02-04T08:30:38.943Z,10.00
2023-02-04T08:33:05.540Z,10.30
2023-02-04T08:35:32.016Z,10.03
2023-02-04T08:37:58.495Z,10.10
2023-02-04T08:40:24.994Z,9.67
2023-02-04T08:42:51.591Z,10.00
2023-02-04T08:45:18.719Z,11.20
2023-02-04T08:47:45.385Z,11.43
2023-02-04T08:50:12.273Z,12.47
2023-02-04T08:52:38.853Z,11.03
2023-02-04T08:55:05.897Z,11.50
2023-02-04T08:57:34.008Z,11.03
2023-02-04T09:00:01.016Z,12.20
2023-02-04T09:02:27.566Z,11.67
2023-02-04T09:04:54.137Z,10.83
2023-02-04T09:07:21.712Z,10.43
2023-02-04T09:09:48.841Z,10.73
2023-02-04T09:12:15.312Z,9.60
2023-02-04T09:14:41.804Z,9.50
2023-02-04T09:17:08.375Z,8.97
2023-02-04T09:19:34.938Z,10.30
2023-02-04T09:22:01.495Z,10.00
2023-02-04T09:24:28.164Z,9.60
2023-02-04T09:26:54.702Z,9.77
2023-02-04T09:29:21.178Z,9.67
2023-02-04T09:31:48.050Z,10.63
2023-02-04T09:34:14.657Z,10.73
2023-02-04T09:36:41.240Z,9.73
2023-02-04T09:39:10.107Z,10.00
2023-02-04T09:41:40.061Z,10.10
2023-02-04T09:44:15.169Z,9.10
2023-02-04T09:46:47.866Z,9.50
2023-02-04T09:49:14.471Z,10.65
2023-02-04T09:51:43.959Z,10.10
2023-02-04T09:54:15.732Z,9.95
2023-02-04T09:56:42.407Z,10.88
2023-02-04T09:59:23.599Z,10.45
2023-02-04T10:02:00.596Z,10.73
2023-02-04T10:04:27.681Z,10.75
2023-02-04T10:06:58.644Z,10.05
2023-02-04T10:09:25.271Z,10.23
2023-02-04T10:11:52.547Z,8.52
2023-02-04T10:14:22.721Z,7.95
2023-02-04T10:16:59.492Z,7.47
2023-02-04T10:19:28.138Z,8.02
2023-02-04T10:21:54.911Z,7.32
2023-02-04T10:24:30.517Z,8.32
2023-02-04T10:27:08.869Z,7.00
2023-02-04T10:29:35.587Z,8.25
2023-02-04T10:32:02.217Z,7.30
2023-02-04T10:34:39.877Z,7.43
2023-02-04T10:37:20.192Z,8.30
2023-02-04T10:39:46.976Z,7.20
2023-02-04T10:42:24.922Z,8.10
2023-02-04T10:44:51.871Z,7.88
2023-02-04T10:47:20.272Z,8.38
2023-02-04T10:49:54.562Z,8.23
2023-02-04T10:52:24.752Z,8.15
2023-02-04T10:54:51.352Z,7.25
2023-02-04T10:57:26.195Z,8.02
2023-02-04T11:00:01.473Z,6.68
2023-02-04T11:02:46.148Z,7.45
2023-02-04T11:05:15.806Z,6.90
2023-02-04T11:07:43.117Z,7.47
2023-02-04T11:10:15.890Z,6.95
2023-02-04T11:13:06.537Z,6.68
2023-02-04T11:16:15.455Z,5.97
2023-02-04T11:18:49.841Z,6.20
2023-02-04T11:21:34.798Z,5.30
2023-02-04T11:24:16.306Z,5.47
2023-02-04T11:26:44.913Z,5.72
2023-02-04T11:29:41.119Z,5.65
2023-02-04T11:32:28.047Z,5.15
2023-02-04T11:34:57.238Z,5.25
2023-02-04T11:37:45.138Z,4.72
2023-02-04T11:40:32.620Z,5.30
2023-02-04T11:43:09.605Z,5.53
2023-02-04T11:45:37.715Z,5.03
2023-02-04T11:48:19.068Z,5.00
2023-02-04T11:50:57.261Z,5.10
2023-02-04T11:53:34.376Z,4.90
2023-02-04T11:56:00.985Z,5.53
2023-02-04T11:58:30.863Z,5.70
2023-02-04T12:00:58.483Z,5.53
2023-02-04T12:03:35.927Z,5.97
2023-02-04T12:06:03.601Z,5.10
2023-02-04T12:08:33.410Z,5.43
2023-02-04T12:11:27.464Z,4.75
2023-02-04T12:13:56.703Z,5.38
2023-02-04T12:16:24.184Z,5.00
2023-02-04T12:18:51.369Z,4.88
2023-02-04T12:21:19.345Z,5.00
2023-02-04T12:23:45.898Z,5.32
2023-02-04T12:26:13.059Z,5.22
2023-02-04T12:28:39.611Z,4.70
2023-02-04T12:31:06.240Z,5.35
2023-02-04T12:33:32.778Z,5.00
2023-02-04T12:35:59.795Z,5.20
2023-02-04T12:38:28.169Z,4.00
2023-02-04T12:40:55.052Z,4.20
2023-02-04T12:43:21.684Z,5.32
2023-02-04T12:45:49.857Z,4.03
2023-02-04T12:48:16.689Z,4.95
2023-02-04T12:50:43.195Z,4.35
2023-02-04T12:53:09.834Z,4.72
2023-02-04T12:55:36.740Z,4.85
2023-02-04T12:58:03.656Z,3.85
2023-02-04T13:00:30.898Z,4.10
2023-02-04T13:02:59.211Z,4.10
2023-02-04T13:05:26.743Z,4.18
2023-02-04T13:07:53.398Z,4.00
2023-02-04T13:10:21.886Z,3.90
2023-02-04T13:12:48.630Z,3.75
2023-02-04T13:15:15.183Z,3.83
2023-02-04T13:17:41.860Z,4.05
2023-02-04T13:20:09.192Z,3.40
2023-02-04T13:22:35.772Z,3.47
2023-02-04T13:25:04.190Z,3.67
2023-02-04T13:27:32.374Z,3.28
2023-02-04T13:29:59.069Z,3.17
2023-02-04T13:32:25.871Z,3.33
2023-02-04T13:34:52.380Z,3.63
2023-02-04T13:37:19.003Z,2.67
2023-02-04T13:39:45.522Z,2.78
2023-02-04T13:42:11.996Z,3.10
2023-02-04T13:44:38.649Z,3.30
2023-02-04T13:47:05.247Z,3.63
2023-02-04T13:49:31.767Z,2.80
2023-02-04T13:51:58.569Z,2.38
2023-02-04T13:54:25.628Z,2.10
2023-02-04T13:56:52.168Z,1.92
2023-02-04T13:59:20.901Z,2.28
2023-02-04T14:01:47.571Z,2.40
2023-02-04T14:04:14.312Z,2.70
2023-02-04T14:06:43.696Z,2.25
2023-02-04T14:09:12.329Z,2.17
2023-02-04T14:11:39.246Z,2.38
2023-02-04T14:14:06.406Z,1.92
2023-02-04T14:16:33.082Z,2.15
2023-02-04T14:19:00.517Z,2.15
2023-02-04T14:21:27.226Z,2.20
2023-02-04T14:23:53.782Z,2.10
2023-02-04T14:26:20.632Z,2.33
2023-02-04T14:28:47.152Z,1.92
2023-02-04T14:31:13.948Z,1.80
2023-02-04T14:33:40.400Z,1.95
2023-02-04T14:36:07.220Z,1.83
2023-02-04T14:38:34.328Z,2.10
2023-02-04T14:41:00.915Z,1.90
2023-02-04T14:43:27.502Z,2.38
2023-02-04T14:45:54.026Z,2.63
2023-02-04T14:48:20.674Z,2.30
2023-02-04T14:50:47.235Z,2.33
2023-02-04T14:53:13.766Z,2.13
2023-02-04T14:55:40.259Z,2.35
2023-02-04T14:58:07.646Z,2.20
2023-02-04T15:00:34.671Z,2.30
2023-02-04T15:03:01.355Z,2.38
2023-02-04T15:05:27.937Z,2.70
2023-02-04T15:07:54.511Z,2.22
2023-02-04T15:10:22.688Z,2.45
2023-02-04T15:12:49.391Z,2.60
2023-02-04T15:15:16.093Z,2.58
2023-02-04T15:17:42.664Z,2.17
2023-02-04T15:20:09.745Z,2.22
2023-02-04T15:22:36.249Z,2.08
2023-02-04T15:25:02.940Z,1.98
2023-02-04T15:27:29.698Z,1.98
2023-02-04T15:29:56.213Z,2.40
2023-02-04T15:32:22.728Z,2.25
2023-02-04T15:34:49.271Z,2.47
2023-02-04T15:37:16.106Z,2.92
2023-02-04T15:39:43.757Z,2.42
2023-02-04T15:42:10.971Z,2.35
2023-02-04T15:44:37.946Z,2.67
2023-02-04T15:47:06.381Z,2.70
2023-02-04T15:49:33.927Z,2.70
2023-02-04T15:52:00.660Z,2.60
2023-02-04T15:54:27.134Z,2.78
2023-02-04T15:56:53.711Z,2.70
2023-02-04T15:59:20.281Z,2.92
2023-02-04T16:01:46.844Z,2.45
2023-02-04T16:04:13.414Z,2.53
2023-02-04T16:06:44.972Z,2.80
2023-02-04T16:09:16.833Z,2.22
2023-02-04T16:11:43.361Z,2.92
2023-02-04T16:14:10.492Z,2.83
2023-02-04T16:16:37.060Z,2.88
2023-02-04T16:19:03.599Z,2.90
2023-02-04T16:21:30.086Z,2.88
2023-02-04T16:23:56.686Z,2.90
2023-02-04T16:26:23.201Z,3.20
2023-02-04T16:28:49.797Z,2.75
2023-02-04T16:31:16.443Z,2.95
2023-02-04T16:33:43.073Z,2.50
2023-02-04T16:36:12.886Z,2.88
2023-02-04T16:38:40.703Z,2.35
2023-02-04T16:41:07.622Z,2.90
2023-02-04T16:43:34.314Z,2.28
2023-02-04T16:46:00.869Z,2.47
2023-02-04T16:48:28.734Z,2.35
2023-02-04T16:50:55.574Z,2.63
2023-02-04T16:53:22.278Z,2.97
2023-02-04T16:55:49.199Z,3.08
2023-02-04T16:58:16.442Z,3.03
2023-02-04T17:00:44.248Z,3.40
2023-02-04T17:03:14.977Z,2.47
2023-02-04T17:05:42.351Z,2.92
2023-02-04T17:08:09.067Z,3.17
2023-02-04T17:10:54.463Z,3.30
2023-02-04T17:13:21.010Z,3.70
2023-02-04T17:15:47.655Z,3.45
2023-02-04T17:18:14.252Z,2.75
2023-02-04T17:20:40.840Z,3.08
2023-02-04T17:23:07.307Z,2.80
2023-02-04T17:25:34.147Z,3.35
2023-02-04T17:28:00.838Z,3.10
2023-02-04T17:30:27.723Z,3.40
2023-02-04T17:32:54.238Z,2.90
2023-02-04T17:35:20.736Z,3.03
2023-02-04T17:37:47.243Z,2.70
2023-02-04T17:40:13.875Z,3.05
2023-02-04T17:42:41.218Z,2.88
2023-02-04T17:45:10.494Z,2.90
2023-02-04T17:47:40.757Z,3.25
2023-02-04T17:50:10.039Z,3.55
2023-02-04T17:52:38.318Z,2.97
2023-02-04T17:55:22.387Z,3.13
2023-02-04T17:57:49.429Z,3.27
2023-02-04T18:00:21.171Z,3.67
2023-02-04T18:02:50.261Z,3.75
2023-02-04T18:05:20.405Z,3.10
2023-02-04T18:07:53.607Z,3.05
2023-02-04T18:10:41.425Z,3.15
2023-02-04T18:13:19.933Z,2.97
2023-02-04T18:15:50.911Z,3.20
2023-02-04T18:18:26.544Z,4.47
2023-02-04T18:21:21.552Z,3.97
2023-02-04T18:24:09.782Z,4.00
2023-02-04T18:26:45.911Z,4.72
2023-02-04T18:29:31.253Z,4.43
2023-02-04T18:32:01.959Z,4.90
2023-02-04T18:34:40.303Z,4.68
2023-02-04T18:37:34.010Z,4.57
2023-02-04T18:40:19.964Z,5.20
2023-02-04T18:42:47.398Z,5.32
2023-02-04T18:45:27.423Z,5.13
2023-02-04T18:47:59.591Z,5.90
2023-02-04T18:50:29.569Z,5.82
2023-02-04T18:53:01.334Z,6.40
2023-02-04T18:55:30.801Z,6.55
2023-02-04T18:58:18.945Z,7.22
2023-02-04T19:00:51.960Z,7.88
2023-02-04T19:03:23.856Z,5.95
2023-02-04T19:05:51.310Z,7.68
2023-02-04T19:08:23.580Z,7.03
2023-02-04T19:10:51.793Z,7.88
2023-02-04T19:13:25.687Z,7.82
2023-02-04T19:16:17.610Z,8.95
2023-02-04T19:18:45.060Z,8.63
2023-02-04T19:21:22.612Z,8.65
2023-02-04T19:23:51.015Z,8.65
2023-02-04T19:26:42.543Z,8.90
2023-02-04T19:29:30.204Z,7.93
2023-02-04T19:32:07.558Z,7.88
2023-02-04T19:34:38.200Z,9.05
2023-02-04T19:37:40.824Z,7.50
2023-02-04T19:40:34.570Z,7.88
2023-02-04T19:43:21.185Z,8.13
2023-02-04T19:45:50.966Z,7.43
2023-02-04T19:48:34.218Z,7.70
2023-02-04T19:51:07.493Z,7.22
2023-02-04T19:53:34.027Z,7.90
2023-02-04T19:56:00.518Z,8.00
2023-02-04T19:58:42.274Z,8.10
2023-02-04T20:01:18.022Z,8.20
2023-02-04T20:03:49.336Z,7.88
2023-02-04T20:06:35.501Z,6.40
2023-02-04T20:09:15.669Z,6.32
2023-02-04T20:12:11.553Z,6.63
2023-02-04T20:14:55.960Z,6.78
2023-02-04T20:17:40.164Z,6.97
2023-02-04T20:20:26.716Z,6.70
2023-02-04T20:22:57.791Z,6.53
2023-02-04T20:25:50.726Z,7.70
2023-02-04T20:28:34.611Z,8.35
2023-02-04T20:31:02.313Z,7.68
2023-02-04T20:33:48.959Z,7.18
2023-02-04T20:36:15.365Z,8.30
2023-02-04T20:38:41.865Z,7.38
2023-02-04T20:41:20.780Z,7.10
2023-02-04T20:43:51.112Z,8.13
2023-02-04T20:46:26.698Z,8.02
2023-02-04T20:48:53.203Z,7.07
2023-02-04T20:51:23.380Z,7.10
2023-02-04T20:53:59.121Z,6.90
2023-02-04T20:56:32.366Z,6.80
2023-02-04T20:59:26.210Z,6.78
2023-02-04T21:01:53.544Z,5.93
2023-02-04T21:04:32.371Z,5.95
2023-02-04T21:07:02.418Z,6.90
2023-02-04T21:09:31.602Z,6.22
2023-02-04T21:11:59.189Z,6.43
2023-02-04T21:14:27.727Z,6.30
2023-02-04T21:16:54.870Z,7.05
2023-02-04T21:19:23.427Z,6.55
2023-02-04T21:21:50.392Z,6.50
2023-02-04T21:24:17.647Z,5.78
2023-02-04T21:26:44.558Z,5.63
2023-02-04T21:29:11.417Z,5.90
2023-02-04T21:31:38.333Z,5.60
2023-02-04T21:34:05.670Z,5.88
2023-02-04T21:36:32.181Z,5.55
2023-02-04T21:38:59.261Z,5.07
2023-02-04T21:41:26.056Z,5.30
2023-02-04T21:43:52.758Z,4.95
2023-02-04T21:46:20.115Z,5.47
2023-02-04T21:48:46.648Z,4.90
2023-02-04T21:51:14.336Z,5.25
2023-02-04T21:53:41.437Z,5.22
2023-02-04T21:56:09.087Z,5.80
2023-02-04T21:58:36.202Z,5.05
2023-02-04T22:01:02.746Z,5.63
2023-02-04T22:03:29.825Z,5.00
2023-02-04T22:05:56.451Z,5.38
2023-02-04T22:08:23.122Z,5.32
2023-02-04T22:10:49.697Z,4.50
2023-02-04T22:13:16.184Z,5.57
2023-02-04T22:15:42.729Z,5.30
2023-02-04T22:18:09.398Z,5.15
2023-02-04T22:20:37.094Z,5.40
2023-02-04T22:23:04.484Z,6.15
2023-02-04T22:25:31.146Z,5.20
2023-02-04T22:27:57.703Z,5.32
2023-02-04T22:30:24.233Z,5.57
2023-02-04T22:32:50.820Z,6.00
2023-02-04T22:35:17.751Z,6.10
2023-02-04T22:37:44.303Z,6.93
2023-02-04T22:40:13.066Z,9.10
2023-02-04T22:42:39.780Z,8.90
2023-02-04T22:45:08.007Z,8.95
2023-02-04T22:47:34.501Z,9.45
2023-02-04T22:50:01.234Z,8.75
2023-02-04T22:52:27.880Z,8.27
2023-02-04T22:54:54.401Z,8.55
2023-02-04T22:57:20.896Z,8.68
2023-02-04T22:59:47.401Z,9.05
2023-02-04T23:02:14.346Z,9.45
2023-02-04T23:04:43.920Z,9.13
2023-02-04T23:07:11.293Z,8.90
2023-02-04T23:09:37.863Z,9.35
2023-02-04T23:12:13.934Z,9.18
2023-02-04T23:14:45.667Z,8.50
2023-02-04T23:17:12.976Z,8.27
2023-02-04T23:19:39.722Z,8.73
2023-02-04T23:22:07.875Z,8.50
2023-02-04T23:24:35.136Z,7.75
2023-02-04T23:27:03.044Z,7.25
2023-02-04T23:29:32.282Z,7.68
2023-02-04T23:31:59.760Z,7.93
2023-02-04T23:34:26.415Z,7.15
2023-02-04T23:36:52.947Z,8.25
2023-02-04T23:39:20.742Z,7.03
2023-02-04T23:41:48.361Z,7.00
2023-02-04T23:44:15.324Z,7.95
2023-02-04T23:46:41.998Z,7.45
2023-02-04T23:49:08.693Z,7.63
2023-02-04T23:51:36.001Z,6.80
2023-02-04T23:54:02.786Z,7.55
2023-02-04T23:56:29.764Z,8.25
2023-02-04T23:58:56.612Z,7.18
